METAR AND TAF INFORMATION
METAR FOR EHGR
ADDS - METARS form results

(0412 UTC 21 April 2021)
Data provider http://aviationweather.gov/metar/data/
 
METAR text: EHGR 210355Z AUTO 32003KT 290V010 6000 BR FEW015CB OVC065 06/05 Q1016 WHT
Conditions at: EHGR (GILZE-RIJEN RNLA, NL) observed 0355 UTC 21 April 2021
Temperature: 6.0°C (43°F)
Dewpoint: 5.0°C (41°F) [RH = 93%]
Pressure (altimeter): 30.00 inches Hg (1016.0 mb)
Winds: from the NW (320 degrees) at 3 MPH (3 knots; 1.5 m/s)
Visibility: 4 miles ( 6 km)
Ceiling: 6500 feet AGL
Clouds: few clouds at 1500 feet AGL
overcast cloud deck at 6500 feet AGL
Weather: BR  (mist)

METAR text: EHGR 210349Z AUTO 32003KT 290V010 5000 BR FEW015CB SCT066 BKN076 05/04 Q1016 WHT
Conditions at: EHGR (GILZE-RIJEN RNLA, NL) observed 0349 UTC 21 April 2021
Temperature: 5.0°C (41°F)
Dewpoint: 4.0°C (39°F) [RH = 93%]
Pressure (altimeter): 30.00 inches Hg (1016.0 mb)
Winds: from the NW (320 degrees) at 3 MPH (3 knots; 1.5 m/s)
Visibility: 3 miles ( 5 km)
Ceiling: 7600 feet AGL
Clouds: few clouds at 1500 feet AGL
scattered clouds at 6600 feet AGL
broken clouds at 7600 feet AGL
Weather: BR  (mist)

METAR text: EHGR 210336Z AUTO 30003KT 280V340 4300 BR FEW015CB BKN075 04/03 Q1016 GRN
Conditions at: EHGR (GILZE-RIJEN RNLA, NL) observed 0336 UTC 21 April 2021
Temperature: 4.0°C (39°F)
Dewpoint: 3.0°C (37°F) [RH = 93%]
Pressure (altimeter): 30.00 inches Hg (1016.0 mb)
Winds: from the WNW (300 degrees) at 3 MPH (3 knots; 1.5 m/s)
Visibility: 2.67 miles (4.30 km)
Ceiling: 7500 feet AGL
Clouds: few clouds at 1500 feet AGL
broken clouds at 7500 feet AGL
Weather: BR  (mist)

METAR text: EHGR 210325Z AUTO VRB01KT 5000 BR FEW015CB OVC074 04/03 Q1016 WHT
Conditions at: EHGR (GILZE-RIJEN RNLA, NL) observed 0325 UTC 21 April 2021
Temperature: 4.0°C (39°F)
Dewpoint: 3.0°C (37°F) [RH = 93%]
Pressure (altimeter): 30.00 inches Hg (1016.0 mb)
Winds: variable direction winds at 1 MPH (1 knots; 0.5 m/s)
Visibility: 3 miles ( 5 km)
Ceiling: 7400 feet AGL
Clouds: few clouds at 1500 feet AGL
overcast cloud deck at 7400 feet AGL
Weather: BR  (mist)

Forecast for: EHGR (GILZE-RIJEN RNLA, NL)
Text: TAF EHGR 201641Z 2017/2105 32005KT CAVOK
Forecast period: 1700 UTC 20 April 2021 to 0500 UTC 21 April 2021
Forecast type: FROM: standard forecast or significant change
Winds: from the NW (320 degrees) at 6 MPH (5 knots; 2.6 m/s)
Visibility: 6 or more miles (10+ km)
Ceiling: unknown
Clouds: missing
Weather: NSW  (no significant weather)
Text: PROB40 2100/2105 3000 BR
Forecast period: 0000 to 0500 UTC 21 April 2021
Forecast type: PROBABLE: 40 percent likelihood of the following during this time
Visibility: 1.86 miles (2.99 km)
Ceiling: unknown
Clouds: missing
Weather: BR  (mist)

 AIRPORT MAP

 RUNWAY INFORMATION
Runway 02 Runway length 6549 ft Runway width 98 ft
Runway elevation 49 ft Runway displaced threshold 191 ft Runway heading 18
Runway 20 Runway length 6549 ft Runway width 98 ft
Runway elevation 40 ft Runway displaced threshold 192 ft Runway heading 198
Runway 10 Runway length 9118 ft Runway width 148 ft
Runway elevation 42 ft Runway displaced threshold 427 ft Runway heading 100
Runway 28 Runway length 9118 ft Runway width 148 ft
Runway elevation 38 ft Runway displaced threshold 331 ft Runway heading 280

 AIRPORT FREQUENCIES
Type ARR Name RAPCON WES Frequency 123.575 MHZ
Type GND Name GND Frequency 23.492 MHZ
Type TWR Name TWR Frequency 125.325 MHZ

 AIRPORT NEAR NAVIGATION AIDS
Type TACAN Name Gilze Rijen Frequency 116400 KHZ